Time;durP1;ratioP1;P1;durP2;ratioP2;P2;SDS_P1;SDS_P2;PMS_P1;PMS_P2;Temp;Humidity;BMP_temperature;BMP_pressure;BME280_temperature;BME280_humidity;BME280_pressure;Samples;Min_cycle;Max_cycle;Signal;HPM_P1;HPM_P2
2022/12/16 00:01:05;;;;;;;10.00;9.00;;;;;;;-4.94;80.60;100366.59;5080250;28;20735;-74
2022/12/16 00:03:32;;;;;;;11.03;9.93;;;;;;;-5.09;80.40;100395.69;5080877;28;20232;-74
2022/12/16 00:05:59;;;;;;;11.40;10.07;;;;;;;-5.04;80.14;100391.66;5081456;28;20207;-73
2022/12/16 00:08:25;;;;;;;12.93;10.47;;;;;;;-4.97;80.39;100397.91;5082324;28;20231;-73
2022/12/16 00:10:58;;;;;;;12.50;11.20;;;;;;;-4.81;80.72;100385.00;5080587;28;20200;-73
2022/12/16 00:13:25;;;;;;;10.63;9.60;;;;;;;-4.80;81.14;100383.31;5080208;28;20205;-74
2022/12/16 00:15:52;;;;;;;11.13;9.90;;;;;;;-4.74;81.37;100382.72;5080190;28;20295;-73
2022/12/16 00:18:19;;;;;;;10.63;7.90;;;;;;;-4.63;81.38;100381.47;5080078;28;20737;-74
2022/12/16 00:20:46;;;;;;;7.83;7.03;;;;;;;-4.52;82.02;100366.63;5080850;28;20748;-73
2022/12/16 00:23:13;;;;;;;9.47;8.13;;;;;;;-4.49;81.64;100354.88;5082726;28;20204;-73
2022/12/16 00:25:42;;;;;;;9.33;8.43;;;;;;;-4.42;81.19;100361.97;5080439;28;20687;-74
2022/12/16 00:28:10;;;;;;;13.17;9.20;;;;;;;-4.51;82.00;100364.16;5081791;28;20248;-74
2022/12/16 00:30:37;;;;;;;14.23;12.47;;;;;;;-4.71;81.92;100360.78;5080650;28;20988;-74
2022/12/16 00:33:04;;;;;;;12.87;11.47;;;;;;;-4.65;82.38;100361.03;5080172;28;20580;-73
2022/12/16 00:35:31;;;;;;;14.43;10.50;;;;;;;-4.67;81.63;100356.69;5080008;28;20662;-74
2022/12/16 00:37:58;;;;;;;10.67;9.67;;;;;;;-4.65;81.63;100355.09;5080571;28;20224;-73
2022/12/16 00:40:25;;;;;;;10.43;9.37;;;;;;;-4.61;80.54;100373.09;5082743;28;20203;-73
2022/12/16 00:42:51;;;;;;;10.47;9.37;;;;;;;-4.72;80.68;100396.38;5083030;28;20204;-73
2022/12/16 00:45:19;;;;;;;10.60;9.13;;;;;;;-4.74;79.81;100397.97;5093106;28;20231;-74
2022/12/16 00:47:46;;;;;;;11.17;9.53;;;;;;;-4.81;79.98;100417.22;5091523;28;20230;-73
2022/12/16 00:50:13;;;;;;;9.77;8.63;;;;;;;-4.88;79.97;100425.41;5092774;28;20224;-73
2022/12/16 00:52:39;;;;;;;12.30;9.13;;;;;;;-4.80;80.68;100421.50;5093645;28;20585;-73
2022/12/16 00:55:07;;;;;;;9.43;8.43;;;;;;;-4.76;80.63;100418.28;5094020;28;20730;-74
2022/12/16 00:57:34;;;;;;;10.17;8.37;;;;;;;-4.80;80.95;100409.66;5093785;28;20260;-74
2022/12/16 01:00:02;;;;;;;9.17;7.57;;;;;;;-4.76;80.54;100399.59;5093755;28;20711;-73
2022/12/16 01:02:30;;;;;;;7.73;6.83;;;;;;;-4.73;80.86;100392.97;5094215;28;20200;-73
2022/12/16 01:04:57;;;;;;;6.93;6.23;;;;;;;-4.69;80.89;100386.31;5093780;28;20677;-73
2022/12/16 01:07:23;;;;;;;7.63;6.83;;;;;;;-4.67;81.24;100385.56;5093777;28;20228;-73
2022/12/16 01:09:50;;;;;;;9.40;7.87;;;;;;;-4.61;81.82;100369.69;5093511;28;20736;-73
2022/12/16 01:12:16;;;;;;;8.13;7.30;;;;;;;-4.66;80.53;100378.78;5093817;28;20234;-73
2022/12/16 01:14:43;;;;;;;9.07;8.23;;;;;;;-4.65;79.95;100398.38;5093785;28;20204;-73
2022/12/16 01:17:09;;;;;;;10.47;8.10;;;;;;;-4.77;80.00;100424.19;5093758;28;20221;-73
2022/12/16 01:19:37;;;;;;;9.57;8.67;;;;;;;-4.80;78.69;100450.41;5093593;28;20665;-73
2022/12/16 01:22:04;;;;;;;14.03;10.03;;;;;;;-4.90;79.84;100455.88;5093523;28;20231;-74
2022/12/16 01:24:30;;;;;;;10.30;9.13;;;;;;;-4.94;79.04;100461.63;5093420;28;20204;-73
2022/12/16 01:26:57;;;;;;;12.23;9.97;;;;;;;-4.96;78.82;100487.84;5093508;28;20235;-73
2022/12/16 01:29:24;;;;;;;10.13;9.13;;;;;;;-5.05;78.22;100489.19;5093580;28;20228;-73
2022/12/16 01:31:50;;;;;;;9.30;8.37;;;;;;;-5.05;78.26;100519.72;5093145;28;20261;-73
2022/12/16 01:34:17;;;;;;;10.03;8.50;;;;;;;-5.18;77.86;100518.28;5093349;28;20207;-73
2022/12/16 01:36:45;;;;;;;10.20;9.20;;;;;;;-5.24;79.16;100527.31;5093385;28;20577;-73
2022/12/16 01:39:12;;;;;;;11.10;10.00;;;;;;;-5.24;78.77;100517.13;5092958;28;20665;-74
2022/12/16 01:41:38;;;;;;;10.63;9.53;;;;;;;-5.29;78.68;100518.59;5093057;28;20235;-73
2022/12/16 01:44:16;;;;;;;12.07;10.87;;;;;;;-5.29;78.62;100527.13;5093118;28;20258;-73
2022/12/16 01:46:44;;;;;;;13.43;10.87;;;;;;;-5.34;79.58;100512.44;5093049;28;20206;-73
2022/12/16 01:49:20;;;;;;;12.43;9.17;;;;;;;-5.35;80.50;100492.88;5093060;28;20345;-73
2022/12/16 01:51:48;;;;;;;11.20;9.60;;;;;;;-5.27;80.24;100467.00;5092828;28;20208;-73
2022/12/16 01:54:18;;;;;;;11.63;10.53;;;;;;;-5.37;79.95;100477.56;5078451;22;20241;-73
2022/12/16 01:56:49;;;;;;;12.70;10.50;;;;;;;-5.42;79.65;100482.41;5052880;28;20198;-72
2022/12/16 01:59:19;;;;;;;12.07;10.63;;;;;;;-5.43;79.17;100493.41;5053101;28;20206;-73
2022/12/16 02:01:45;;;;;;;14.53;12.17;;;;;;;-5.44;79.71;100495.88;5052594;28;20236;-73
2022/12/16 02:04:12;;;;;;;13.77;12.00;;;;;;;-5.43;79.75;100492.50;5052915;28;20212;-73
2022/12/16 02:06:39;;;;;;;13.20;11.90;;;;;;;-5.39;79.72;100480.03;5052388;28;20578;-73
2022/12/16 02:09:10;;;;;;;14.47;11.37;;;;;;;-5.30;79.79;100473.59;5052303;28;20221;-73
2022/12/16 02:12:06;;;;;;;16.00;12.10;;;;;;;-5.23;79.69;100473.97;5052341;28;20209;-73
2022/12/16 02:14:56;;;;;;;12.13;10.67;;;;;;;-5.24;79.88;100478.97;5052460;28;20209;-73
2022/12/16 02:17:30;;;;;;;11.77;10.17;;;;;;;-5.27;79.76;100472.09;5052257;28;20598;-73
2022/12/16 02:20:22;;;;;;;12.17;10.37;;;;;;;-5.36;79.57;100478.41;5052237;28;20196;-72
2022/12/16 02:23:10;;;;;;;11.13;9.23;;;;;;;-5.41;79.13;100478.19;5052335;28;20485;-73
2022/12/16 02:26:16;;;;;;;10.37;8.33;;;;;;;-5.40;79.75;100482.50;5052247;28;20209;-73
2022/12/16 02:29:12;;;;;;;10.90;8.97;;;;;;;-5.31;79.48;100472.75;5038455;28;20698;-73
2022/12/16 02:31:44;;;;;;;10.80;8.00;;;;;;;-5.43;78.82;100485.78;5051951;28;20216;-73
2022/12/16 02:34:21;;;;;;;9.77;8.70;;;;;;;-5.35;78.52;100493.75;5052218;28;20215;-73
2022/12/16 02:37:00;;;;;;;11.63;9.23;;;;;;;-5.42;78.28;100507.00;5052255;28;20623;-73
2022/12/16 02:39:35;;;;;;;12.70;9.90;;;;;;;-5.49;78.95;100513.47;5052090;28;20284;-73
2022/12/16 02:42:11;;;;;;;13.07;8.83;;;;;;;-5.61;78.70;100508.69;5051859;28;20299;-73
2022/12/16 02:44:51;;;;;;;10.97;9.33;;;;;;;-5.61;77.82;100506.13;5052187;28;20205;-73
2022/12/16 02:47:19;;;;;;;9.33;8.43;;;;;;;-5.84;78.83;100520.28;5051817;28;20240;-73
2022/12/16 02:49:48;;;;;;;15.00;9.93;;;;;;;-5.80;79.48;100501.84;5051833;28;20228;-73
2022/12/16 02:52:17;;;;;;;11.53;9.33;;;;;;;-5.75;79.98;100485.94;5051836;28;20205;-73
2022/12/16 02:54:44;;;;;;;13.30;8.70;;;;;;;-5.70;79.30;100487.03;5051610;28;20217;-73
2022/12/16 02:57:31;;;;;;;11.07;9.33;;;;;;;-5.85;78.17;100499.88;5051683;28;20226;-73
2022/12/16 03:00:02;;;;;;;9.47;8.50;;;;;;;-5.88;77.82;100517.53;5048841;28;20224;-73
2022/12/16 03:02:41;;;;;;;10.17;8.53;;;;;;;-5.85;79.22;100512.56;5051558;28;20678;-73
2022/12/16 03:05:14;;;;;;;8.67;7.87;;;;;;;-5.81;79.19;100500.13;5051712;28;20201;-73
2022/12/16 03:07:43;;;;;;;9.70;8.00;;;;;;;-5.91;79.54;100487.72;5051550;28;20229;-72
2022/12/16 03:10:14;;;;;;;11.13;7.07;;;;;;;-5.73;79.92;100476.72;5051196;28;20733;-73
2022/12/16 03:12:44;;;;;;;10.57;9.47;;;;;;;-5.61;79.73;100460.38;5051904;28;20205;-73
2022/12/16 03:15:13;;;;;;;13.60;9.30;;;;;;;-5.54;80.35;100455.56;5051624;28;20205;-73
2022/12/16 03:17:44;;;;;;;9.80;8.47;;;;;;;-5.44;80.72;100435.69;5051435;28;20714;-73
2022/12/16 03:20:16;;;;;;;10.77;9.10;;;;;;;-5.42;80.83;100425.59;5051306;28;20205;-73
2022/12/16 03:22:46;;;;;;;10.20;9.10;;;;;;;-5.40;79.51;100429.09;5051716;28;20213;-73
2022/12/16 03:25:14;;;;;;;10.73;9.20;;;;;;;-5.44;78.87;100445.88;5051557;28;20400;-73
2022/12/16 03:27:49;;;;;;;11.40;9.10;;;;;;;-5.46;79.06;100472.91;5051367;28;20717;-73
2022/12/16 03:30:18;;;;;;;13.47;11.10;;;;;;;-5.52;79.06;100485.34;5051392;28;20596;-73
2022/12/16 03:32:52;;;;;;;14.50;10.40;;;;;;;-5.85;81.29;100469.38;5051395;28;20208;-73
2022/12/16 03:35:22;;;;;;;13.90;12.27;;;;;;;-6.39;84.26;100414.34;5051404;28;20300;-73
2022/12/16 03:37:54;;;;;;;13.67;11.60;;;;;;;-6.41;83.98;100342.31;5051541;28;20221;-73
2022/12/16 03:40:21;;;;;;;14.87;11.80;;;;;;;-6.23;84.28;100306.75;5051066;28;20209;-73
2022/12/16 03:42:49;;;;;;;14.63;11.70;;;;;;;-6.07;84.11;100280.38;5051369;28;20210;-72
2022/12/16 03:45:20;;;;;;;12.63;11.33;;;;;;;-5.95;83.65;100276.66;5051168;28;20220;-73
2022/12/16 03:47:50;;;;;;;17.33;12.90;;;;;;;-5.81;83.65;100273.00;5051306;28;20229;-73
2022/12/16 03:50:19;;;;;;;17.07;12.37;;;;;;;-5.73;83.75;100275.88;5051025;28;20604;-73
2022/12/16 03:52:45;;;;;;;15.53;11.73;;;;;;;-5.65;83.52;100284.72;5051044;28;20573;-73
2022/12/16 03:55:12;;;;;;;12.27;11.03;;;;;;;-5.63;83.17;100294.16;5052382;28;20228;-73
2022/12/16 03:57:39;;;;;;;10.90;9.77;;;;;;;-5.67;82.40;100315.19;5054889;28;20229;-73
2022/12/16 04:00:06;;;;;;;14.37;9.97;;;;;;;-5.70;82.25;100322.66;5054928;28;20215;-73
2022/12/16 04:02:33;;;;;;;11.63;9.23;;;;;;;-5.75;82.50;100334.28;5054938;28;20212;-73
2022/12/16 04:05:01;;;;;;;11.57;9.80;;;;;;;-5.77;82.06;100333.34;5055028;28;20262;-73
2022/12/16 04:07:27;;;;;;;11.37;10.27;;;;;;;-5.78;81.43;100355.34;5054894;28;20234;-73
2022/12/16 04:09:54;;;;;;;11.30;9.83;;;;;;;-5.87;81.89;100366.78;5054441;28;20248;-73
2022/12/16 04:26:20;;;;;;;9.83;7.93;;;;;;;-5.83;79.82;100445.78;5054406;28;20682;-73
2022/12/16 04:28:46;;;;;;;9.73;8.73;;;;;;;-5.86;80.41;100458.34;5054250;28;20245;-73
2022/12/16 04:31:12;;;;;;;9.47;7.73;;;;;;;-5.88;80.04;100457.41;5053856;28;20232;-73
